sensor_id;sensor_type;location;lat;lon;timestamp;pressure;altitude;pressure_sealevel;temperature;humidity
78894;BME280;68282;42.698;23.350;2023-08-12T00:00:48;95984.72;;;20.63;50.05
78894;BME280;68282;42.698;23.350;2023-08-12T00:03:14;95982.63;;;20.49;50.22
78894;BME280;68282;42.698;23.350;2023-08-12T00:05:39;95994.00;;;20.43;50.37
78894;BME280;68282;42.698;23.350;2023-08-12T00:08:05;95991.97;;;20.53;50.34
78894;BME280;68282;42.698;23.350;2023-08-12T00:10:31;95994.47;;;20.55;50.45
78894;BME280;68282;42.698;23.350;2023-08-12T00:12:57;95997.75;;;20.57;50.30
78894;BME280;68282;42.698;23.350;2023-08-12T00:15:22;95988.59;;;20.62;50.02
78894;BME280;68282;42.698;23.350;2023-08-12T00:17:48;95998.28;;;20.64;50.09
78894;BME280;68282;42.698;23.350;2023-08-12T00:20:13;95989.03;;;20.34;50.36
78894;BME280;68282;42.698;23.350;2023-08-12T00:22:39;95994.56;;;20.39;50.41
78894;BME280;68282;42.698;23.350;2023-08-12T00:25:06;95997.56;;;20.43;50.63
78894;BME280;68282;42.698;23.350;2023-08-12T00:27:31;95990.63;;;20.46;50.01
78894;BME280;68282;42.698;23.350;2023-08-12T00:29:57;95996.50;;;20.39;50.06
78894;BME280;68282;42.698;23.350;2023-08-12T00:32:22;95986.50;;;20.43;50.13
78894;BME280;68282;42.698;23.350;2023-08-12T00:34:47;95978.84;;;20.35;49.80
78894;BME280;68282;42.698;23.350;2023-08-12T00:37:13;95979.38;;;20.37;49.84
78894;BME280;68282;42.698;23.350;2023-08-12T00:39:38;95988.47;;;20.37;49.93
78894;BME280;68282;42.698;23.350;2023-08-12T00:42:04;95973.94;;;20.21;50.21
78894;BME280;68282;42.698;23.350;2023-08-12T00:44:30;95987.13;;;20.35;50.34
78894;BME280;68282;42.698;23.350;2023-08-12T00:46:55;95985.72;;;20.37;50.23
78894;BME280;68282;42.698;23.350;2023-08-12T00:49:22;95988.47;;;20.43;50.40
78894;BME280;68282;42.698;23.350;2023-08-12T00:51:49;95987.34;;;20.44;50.64
78894;BME280;68282;42.698;23.350;2023-08-12T00:54:16;95980.19;;;20.43;50.94
78894;BME280;68282;42.698;23.350;2023-08-12T00:56:43;95980.19;;;20.43;50.55
78894;BME280;68282;42.698;23.350;2023-08-12T00:59:09;95972.16;;;20.41;50.66
78894;BME280;68282;42.698;23.350;2023-08-12T01:01:39;95978.22;;;20.43;50.35
78894;BME280;68282;42.698;23.350;2023-08-12T01:04:05;95974.41;;;20.39;50.47
78894;BME280;68282;42.698;23.350;2023-08-12T01:06:31;95977.69;;;20.41;50.34
78894;BME280;68282;42.698;23.350;2023-08-12T01:08:57;95970.56;;;20.30;50.44
78894;BME280;68282;42.698;23.350;2023-08-12T01:14:12;95978.00;;;20.34;51.10
78894;BME280;68282;42.698;23.350;2023-08-12T01:16:43;95979.44;;;20.27;51.67
78894;BME280;68282;42.698;23.350;2023-08-12T01:19:16;95971.72;;;20.23;51.88
78894;BME280;68282;42.698;23.350;2023-08-12T01:21:46;95975.09;;;20.15;51.72
78894;BME280;68282;42.698;23.350;2023-08-12T01:24:14;95971.22;;;20.16;51.55
78894;BME280;68282;42.698;23.350;2023-08-12T01:26:40;95977.31;;;20.13;51.88
78894;BME280;68282;42.698;23.350;2023-08-12T01:29:05;95972.06;;;20.12;51.66
78894;BME280;68282;42.698;23.350;2023-08-12T01:31:35;95969.03;;;20.08;52.17
78894;BME280;68282;42.698;23.350;2023-08-12T01:34:15;95960.53;;;19.99;52.21
78894;BME280;68282;42.698;23.350;2023-08-12T01:36:46;95970.16;;;20.02;52.03
78894;BME280;68282;42.698;23.350;2023-08-12T01:39:13;95973.22;;;20.00;52.05
78894;BME280;68282;42.698;23.350;2023-08-12T01:41:39;95971.03;;;19.97;52.37
78894;BME280;68282;42.698;23.350;2023-08-12T01:44:05;95968.81;;;19.94;52.52
78894;BME280;68282;42.698;23.350;2023-08-12T01:46:30;95977.66;;;19.91;52.63
78894;BME280;68282;42.698;23.350;2023-08-12T01:48:56;95967.47;;;19.86;52.33
78894;BME280;68282;42.698;23.350;2023-08-12T01:51:21;95967.47;;;19.86;52.10
78894;BME280;68282;42.698;23.350;2023-08-12T01:53:47;95976.00;;;19.85;52.22
78894;BME280;68282;42.698;23.350;2023-08-12T01:56:12;95962.81;;;19.76;52.17
78894;BME280;68282;42.698;23.350;2023-08-12T01:58:38;95967.22;;;19.72;52.29
78894;BME280;68282;42.698;23.350;2023-08-12T02:01:03;95973.53;;;19.78;52.38
78894;BME280;68282;42.698;23.350;2023-08-12T02:03:29;95966.94;;;19.74;52.37
78894;BME280;68282;42.698;23.350;2023-08-12T02:05:54;95974.09;;;19.75;52.75
78894;BME280;68282;42.698;23.350;2023-08-12T02:08:19;95966.97;;;19.69;52.44
78894;BME280;68282;42.698;23.350;2023-08-12T02:10:45;95960.88;;;19.67;52.31
78894;BME280;68282;42.698;23.350;2023-08-12T02:13:10;95963.38;;;19.63;52.46
78894;BME280;68282;42.698;23.350;2023-08-12T02:15:36;95968.63;;;19.70;52.53
78894;BME280;68282;42.698;23.350;2023-08-12T02:18:01;95961.75;;;19.62;52.58
78894;BME280;68282;42.698;23.350;2023-08-12T02:20:27;95970.28;;;19.66;52.66
78894;BME280;68282;42.698;23.350;2023-08-12T02:22:52;95962.03;;;19.55;52.79
78894;BME280;68282;42.698;23.350;2023-08-12T02:25:17;95961.47;;;19.53;53.10
78894;BME280;68282;42.698;23.350;2023-08-12T02:27:43;95963.44;;;19.53;53.07
78894;BME280;68282;42.698;23.350;2023-08-12T02:30:09;95973.06;;;19.55;53.19
78894;BME280;68282;42.698;23.350;2023-08-12T02:32:35;95978.31;;;19.52;53.33
78894;BME280;68282;42.698;23.350;2023-08-12T02:35:01;95975.84;;;19.50;53.23
78894;BME280;68282;42.698;23.350;2023-08-12T02:37:26;95969.22;;;19.51;53.38
78894;BME280;68282;42.698;23.350;2023-08-12T02:39:52;95966.75;;;19.44;53.67
78894;BME280;68282;42.698;23.350;2023-08-12T02:42:17;95970.88;;;19.47;53.59
78894;BME280;68282;42.698;23.350;2023-08-12T02:44:42;95981.94;;;19.47;53.43
78894;BME280;68282;42.698;23.350;2023-08-12T02:47:08;95979.44;;;19.40;53.40
78894;BME280;68282;42.698;23.350;2023-08-12T02:49:33;95988.28;;;19.42;53.28
78894;BME280;68282;42.698;23.350;2023-08-12T02:51:59;95974.22;;;19.34;53.34
78894;BME280;68282;42.698;23.350;2023-08-12T02:54:24;95988.53;;;19.41;53.36
78894;BME280;68282;42.698;23.350;2023-08-12T02:56:50;95991.88;;;19.38;53.51
78894;BME280;68282;42.698;23.350;2023-08-12T02:59:16;95988.00;;;19.39;53.51
78894;BME280;68282;42.698;23.350;2023-08-12T03:01:41;95992.97;;;19.37;53.73
78894;BME280;68282;42.698;23.350;2023-08-12T03:04:07;95995.19;;;19.35;53.76
78894;BME280;68282;42.698;23.350;2023-08-12T03:06:32;95982.78;;;19.27;54.06
78894;BME280;68282;42.698;23.350;2023-08-12T03:08:58;95990.22;;;19.21;54.26
78894;BME280;68282;42.698;23.350;2023-08-12T03:11:24;95991.34;;;19.20;54.39
78894;BME280;68282;42.698;23.350;2023-08-12T03:13:49;95980.59;;;19.13;54.31
78894;BME280;68282;42.698;23.350;2023-08-12T03:16:15;95993.00;;;19.16;54.11
78894;BME280;68282;42.698;23.350;2023-08-12T03:18:41;95982.00;;;19.06;54.09
78894;BME280;68282;42.698;23.350;2023-08-12T03:21:09;95994.94;;;19.10;54.31
78894;BME280;68282;42.698;23.350;2023-08-12T03:23:36;96004.56;;;19.08;54.33
78894;BME280;68282;42.698;23.350;2023-08-12T03:26:02;95997.16;;;18.98;54.82
78894;BME280;68282;42.698;23.350;2023-08-12T03:28:28;95993.00;;;19.00;54.49
78894;BME280;68282;42.698;23.350;2023-08-12T03:30:53;96001.28;;;19.06;54.58
78894;BME280;68282;42.698;23.350;2023-08-12T03:33:19;95995.47;;;19.02;54.69
78894;BME280;68282;42.698;23.350;2023-08-12T03:35:46;96004.84;;;19.06;54.31
78894;BME280;68282;42.698;23.350;2023-08-12T03:38:11;96006.78;;;19.00;54.79
78894;BME280;68282;42.698;23.350;2023-08-12T03:40:41;95999.63;;;18.94;54.69
78894;BME280;68282;42.698;23.350;2023-08-12T03:43:06;95997.97;;;18.98;55.01
78894;BME280;68282;42.698;23.350;2023-08-12T03:45:33;96005.69;;;19.02;54.83
78894;BME280;68282;42.698;23.350;2023-08-12T03:47:59;95994.66;;;18.96;55.11
78894;BME280;68282;42.698;23.350;2023-08-12T03:50:24;96005.13;;;18.99;55.10
78894;BME280;68282;42.698;23.350;2023-08-12T03:52:49;95994.66;;;18.96;54.98
78894;BME280;68282;42.698;23.350;2023-08-12T03:55:15;95998.53;;;18.95;54.92
78894;BME280;68282;42.698;23.350;2023-08-12T03:57:40;96005.69;;;18.96;54.84
78894;BME280;68282;42.698;23.350;2023-08-12T04:00:06;96006.22;;;18.98;55.12
78894;BME280;68282;42.698;23.350;2023-08-12T04:02:34;96016.69;;;18.96;55.34
78894;BME280;68282;42.698;23.350;2023-08-12T04:04:59;96015.59;;;18.97;55.39
78894;BME280;68282;42.698;23.350;2023-08-12T04:07:25;96012.59;;;18.99;55.30
78894;BME280;68282;42.698;23.350;2023-08-12T04:09:52;96006.19;;;18.88;55.38
78894;BME280;68282;42.698;23.350;2023-08-12T04:12:17;96020.59;;;18.95;55.27
78894;BME280;68282;42.698;23.350;2023-08-12T04:14:43;96012.28;;;18.90;55.67
78894;BME280;68282;42.698;23.350;2023-08-12T04:17:08;96015.88;;;18.96;55.53
78894;BME280;68282;42.698;23.350;2023-08-12T04:19:34;96023.88;;;18.97;55.71
78894;BME280;68282;42.698;23.350;2023-08-12T04:21:59;96014.75;;;18.92;55.47
78894;BME280;68282;42.698;23.350;2023-08-12T04:24:24;96014.53;;;18.93;55.55
78894;BME280;68282;42.698;23.350;2023-08-12T04:26:50;96011.19;;;18.96;55.40
78894;BME280;68282;42.698;23.350;2023-08-12T04:29:15;96013.66;;;18.88;55.28
78894;BME280;68282;42.698;23.350;2023-08-12T04:31:41;96006.75;;;18.90;55.36
78894;BME280;68282;42.698;23.350;2023-08-12T04:34:06;95998.78;;;18.89;54.56
78894;BME280;68282;42.698;23.350;2023-08-12T04:36:32;96016.16;;;18.99;54.70
78894;BME280;68282;42.698;23.350;2023-08-12T04:38:57;96017.25;;;18.98;54.45
78894;BME280;68282;42.698;23.350;2023-08-12T04:41:22;96019.16;;;18.93;55.07
78894;BME280;68282;42.698;23.350;2023-08-12T04:43:49;96024.94;;;18.91;54.68
78894;BME280;68282;42.698;23.350;2023-08-12T04:46:14;96028.25;;;18.88;54.49
78894;BME280;68282;42.698;23.350;2023-08-12T04:48:40;96026.31;;;18.83;54.71
78894;BME280;68282;42.698;23.350;2023-08-12T04:51:06;96016.97;;;18.79;54.91
78894;BME280;68282;42.698;23.350;2023-08-12T04:53:32;96024.38;;;18.79;54.97
78894;BME280;68282;42.698;23.350;2023-08-12T04:55:57;96017.50;;;18.81;54.79
78894;BME280;68282;42.698;23.350;2023-08-12T04:58:23;96023.84;;;18.87;54.69
78894;BME280;68282;42.698;23.350;2023-08-12T05:00:50;96013.91;;;18.86;54.84
78894;BME280;68282;42.698;23.350;2023-08-12T05:03:17;96021.09;;;18.92;54.63
78894;BME280;68282;42.698;23.350;2023-08-12T05:05:42;96027.19;;;18.99;54.59
78894;BME280;68282;42.698;23.350;2023-08-12T05:08:07;96016.69;;;18.96;54.34
78894;BME280;68282;42.698;23.350;2023-08-12T05:10:33;96038.47;;;19.03;54.21
78894;BME280;68282;42.698;23.350;2023-08-12T05:12:58;96022.22;;;19.02;53.74
78894;BME280;68282;42.698;23.350;2023-08-12T05:15:24;96031.34;;;19.12;54.16
78894;BME280;68282;42.698;23.350;2023-08-12T05:17:49;96015.34;;;19.09;53.89
78894;BME280;68282;42.698;23.350;2023-08-12T05:20:15;96034.94;;;19.18;53.68
78894;BME280;68282;42.698;23.350;2023-08-12T05:22:40;96022.22;;;19.22;54.30
78894;BME280;68282;42.698;23.350;2023-08-12T05:25:06;96023.06;;;19.18;53.97
78894;BME280;68282;42.698;23.350;2023-08-12T05:27:31;96032.44;;;19.11;53.87
78894;BME280;68282;42.698;23.350;2023-08-12T05:29:57;96032.69;;;18.84;54.84
78894;BME280;68282;42.698;23.350;2023-08-12T05:32:23;96029.41;;;19.03;54.92
78894;BME280;68282;42.698;23.350;2023-08-12T05:34:52;96037.97;;;19.11;55.00
78894;BME280;68282;42.698;23.350;2023-08-12T05:37:18;96032.44;;;19.11;54.83
78894;BME280;68282;42.698;23.350;2023-08-12T05:39:44;96041.81;;;19.21;54.85
78894;BME280;68282;42.698;23.350;2023-08-12T05:42:09;96034.91;;;19.13;54.31
78894;BME280;68282;42.698;23.350;2023-08-12T05:44:35;96042.06;;;19.09;54.52
78894;BME280;68282;42.698;23.350;2023-08-12T05:47:00;96047.03;;;19.02;54.16
78894;BME280;68282;42.698;23.350;2023-08-12T05:49:25;96036.28;;;19.05;54.43
78894;BME280;68282;42.698;23.350;2023-08-12T05:51:51;96030.22;;;19.13;54.55
78894;BME280;68282;42.698;23.350;2023-08-12T05:54:16;96035.19;;;19.27;54.54
78894;BME280;68282;42.698;23.350;2023-08-12T05:56:42;96025.25;;;19.26;54.30
78894;BME280;68282;42.698;23.350;2023-08-12T05:59:07;96020.28;;;19.28;54.07
78894;BME280;68282;42.698;23.350;2023-08-12T06:01:33;96029.94;;;19.36;54.18
78894;BME280;68282;42.698;23.350;2023-08-12T06:03:58;96023.88;;;19.39;53.38
78894;BME280;68282;42.698;23.350;2023-08-12T06:06:24;96004.84;;;19.32;53.77
78894;BME280;68282;42.698;23.350;2023-08-12T06:08:49;96018.63;;;19.42;53.29
78894;BME280;68282;42.698;23.350;2023-08-12T06:11:15;96014.47;;;19.50;53.38
78894;BME280;68282;42.698;23.350;2023-08-12T06:13:40;96008.16;;;19.44;53.43
78894;BME280;68282;42.698;23.350;2023-08-12T06:16:06;96018.06;;;19.45;53.37
78894;BME280;68282;42.698;23.350;2023-08-12T06:18:31;96000.94;;;19.49;53.58
78894;BME280;68282;42.698;23.350;2023-08-12T06:20:56;96013.38;;;19.51;52.45
78894;BME280;68282;42.698;23.350;2023-08-12T06:23:22;96013.63;;;19.55;52.21
78894;BME280;68282;42.698;23.350;2023-08-12T06:25:47;96012.56;;;19.40;52.27
78894;BME280;68282;42.698;23.350;2023-08-12T06:28:13;96005.09;;;19.41;52.11
78894;BME280;68282;42.698;23.350;2023-08-12T06:30:38;96003.75;;;19.33;52.36
78894;BME280;68282;42.698;23.350;2023-08-12T06:33:04;96005.91;;;19.46;52.31
78894;BME280;68282;42.698;23.350;2023-08-12T06:35:29;96004.00;;;19.42;52.25
78894;BME280;68282;42.698;23.350;2023-08-12T06:37:55;95988.28;;;19.42;52.79
78894;BME280;68282;42.698;23.350;2023-08-12T06:40:20;96000.91;;;19.59;52.23
78894;BME280;68282;42.698;23.350;2023-08-12T06:42:46;95992.09;;;19.67;51.90
78894;BME280;68282;42.698;23.350;2023-08-12T06:45:11;95985.72;;;19.67;51.73
78894;BME280;68282;42.698;23.350;2023-08-12T06:47:37;95992.59;;;19.74;51.90
78894;BME280;68282;42.698;23.350;2023-08-12T06:50:02;95994.00;;;19.67;53.15
78894;BME280;68282;42.698;23.350;2023-08-12T06:52:28;95977.16;;;19.68;52.57
78894;BME280;68282;42.698;23.350;2023-08-12T06:54:53;95993.97;;;19.92;52.33
78894;BME280;68282;42.698;23.350;2023-08-12T06:57:19;95988.94;;;20.00;52.28
78894;BME280;68282;42.698;23.350;2023-08-12T06:59:44;95997.50;;;20.03;51.75
78894;BME280;68282;42.698;23.350;2023-08-12T07:02:10;95979.31;;;19.97;52.01
78894;BME280;68282;42.698;23.350;2023-08-12T07:04:36;95980.91;;;20.08;51.59
78894;BME280;68282;42.698;23.350;2023-08-12T07:07:01;95980.63;;;20.10;51.19
78894;BME280;68282;42.698;23.350;2023-08-12T07:09:26;95973.69;;;20.13;51.42
78894;BME280;68282;42.698;23.350;2023-08-12T07:11:53;95984.97;;;20.21;51.35
78894;BME280;68282;42.698;23.350;2023-08-12T07:14:18;95978.09;;;20.19;50.53
78894;BME280;68282;42.698;23.350;2023-08-12T07:16:44;95982.22;;;20.27;50.85
78894;BME280;68282;42.698;23.350;2023-08-12T07:19:09;95975.28;;;20.29;50.32
78894;BME280;68282;42.698;23.350;2023-08-12T07:21:35;95979.88;;;20.44;49.50
78894;BME280;68282;42.698;23.350;2023-08-12T07:24:00;95978.53;;;20.42;48.19
78894;BME280;68282;42.698;23.350;2023-08-12T07:26:26;95971.66;;;20.39;48.15
78894;BME280;68282;42.698;23.350;2023-08-12T07:28:51;95985.91;;;20.51;49.24
78894;BME280;68282;42.698;23.350;2023-08-12T07:31:17;95983.94;;;20.57;47.48
78894;BME280;68282;42.698;23.350;2023-08-12T07:33:43;95982.75;;;20.68;48.47
78894;BME280;68282;42.698;23.350;2023-08-12T07:36:09;95974.22;;;20.65;48.90
78894;BME280;68282;42.698;23.350;2023-08-12T07:38:34;95975.06;;;20.60;48.67
78894;BME280;68282;42.698;23.350;2023-08-12T07:41:00;95975.56;;;20.73;48.91
78894;BME280;68282;42.698;23.350;2023-08-12T07:43:25;95973.31;;;20.80;49.06
78894;BME280;68282;42.698;23.350;2023-08-12T07:45:54;95983.16;;;20.91;48.60
78894;BME280;68282;42.698;23.350;2023-08-12T07:48:20;95979.06;;;20.89;48.80
78894;BME280;68282;42.698;23.350;2023-08-12T07:50:46;95969.84;;;20.98;48.45
78894;BME280;68282;42.698;23.350;2023-08-12T07:53:14;95968.16;;;21.03;47.79
78894;BME280;68282;42.698;23.350;2023-08-12T07:55:41;95957.53;;;21.15;47.89
78894;BME280;68282;42.698;23.350;2023-08-12T07:58:07;95947.25;;;21.21;48.33
78894;BME280;68282;42.698;23.350;2023-08-12T08:00:33;95943.59;;;21.25;48.12
78894;BME280;68282;42.698;23.350;2023-08-12T08:02:58;95934.47;;;21.25;46.61
78894;BME280;68282;42.698;23.350;2023-08-12T08:05:24;95946.56;;;21.34;46.95
78894;BME280;68282;42.698;23.350;2023-08-12T08:07:50;95948.56;;;21.28;46.08
78894;BME280;68282;42.698;23.350;2023-08-12T08:10:15;95944.91;;;21.33;45.31
78894;BME280;68282;42.698;23.350;2023-08-12T08:12:41;95936.50;;;21.43;45.46
78894;BME280;68282;42.698;23.350;2023-08-12T08:15:06;95941.69;;;21.50;45.20
78894;BME280;68282;42.698;23.350;2023-08-12T08:17:32;95932.50;;;21.55;45.52
78894;BME280;68282;42.698;23.350;2023-08-12T08:19:57;95934.97;;;21.56;45.33
78894;BME280;68282;42.698;23.350;2023-08-12T08:22:23;95941.03;;;21.64;44.46
78894;BME280;68282;42.698;23.350;2023-08-12T08:24:48;95928.31;;;21.57;45.46
78894;BME280;68282;42.698;23.350;2023-08-12T08:27:14;95926.28;;;21.68;46.15
78894;BME280;68282;42.698;23.350;2023-08-12T08:29:39;95930.72;;;21.88;46.09
78894;BME280;68282;42.698;23.350;2023-08-12T08:32:05;95935.09;;;21.95;45.14
78894;BME280;68282;42.698;23.350;2023-08-12T08:34:31;95916.28;;;21.91;44.30
78894;BME280;68282;42.698;23.350;2023-08-12T08:36:56;95920.59;;;22.03;44.66
78894;BME280;68282;42.698;23.350;2023-08-12T08:39:22;95917.09;;;22.16;44.75
78894;BME280;68282;42.698;23.350;2023-08-12T08:41:48;95923.59;;;22.26;43.84
78894;BME280;68282;42.698;23.350;2023-08-12T08:44:14;95918.28;;;22.29;43.27
78894;BME280;68282;42.698;23.350;2023-08-12T08:46:46;95922.78;;;22.44;41.98
78894;BME280;68282;42.698;23.350;2023-08-12T08:49:14;95915.53;;;22.48;42.74
78894;BME280;68282;42.698;23.350;2023-08-12T08:51:40;95914.63;;;22.53;42.26
78894;BME280;68282;42.698;23.350;2023-08-12T08:54:07;95912.69;;;22.53;41.93
78894;BME280;68282;42.698;23.350;2023-08-12T08:56:34;95907.16;;;22.53;42.61
78894;BME280;68282;42.698;23.350;2023-08-12T08:58:59;95912.97;;;22.52;41.57
78894;BME280;68282;42.698;23.350;2023-08-12T09:01:27;95910.75;;;22.54;42.62
78894;BME280;68282;42.698;23.350;2023-08-12T09:03:53;95909.75;;;22.64;41.96
78894;BME280;68282;42.698;23.350;2023-08-12T09:06:21;95899.78;;;22.63;41.94
78894;BME280;68282;42.698;23.350;2023-08-12T09:08:48;95894.16;;;22.68;42.24
78894;BME280;68282;42.698;23.350;2023-08-12T09:11:17;95893.06;;;22.83;43.09
78894;BME280;68282;42.698;23.350;2023-08-12T09:13:43;95890.44;;;22.92;42.55
78894;BME280;68282;42.698;23.350;2023-08-12T09:16:08;95887.13;;;22.90;41.65
78894;BME280;68282;42.698;23.350;2023-08-12T09:18:34;95889.63;;;22.91;41.30
78894;BME280;68282;42.698;23.350;2023-08-12T09:21:01;95885.28;;;22.85;41.79
78894;BME280;68282;42.698;23.350;2023-08-12T09:23:26;95893.03;;;23.02;42.54
78894;BME280;68282;42.698;23.350;2023-08-12T09:25:53;95885.00;;;23.00;42.10
78894;BME280;68282;42.698;23.350;2023-08-12T09:28:18;95873.81;;;23.06;41.84
78894;BME280;68282;42.698;23.350;2023-08-12T09:30:50;95880.88;;;23.31;41.76
78894;BME280;68282;42.698;23.350;2023-08-12T09:33:23;95878.00;;;23.22;40.66
78894;BME280;68282;42.698;23.350;2023-08-12T09:35:49;95875.53;;;23.35;40.64
78894;BME280;68282;42.698;23.350;2023-08-12T09:38:15;95861.84;;;23.38;40.71
78894;BME280;68282;42.698;23.350;2023-08-12T09:40:40;95870.91;;;23.58;40.49
78894;BME280;68282;42.698;23.350;2023-08-12T09:43:06;95864.63;;;23.66;40.12
78894;BME280;68282;42.698;23.350;2023-08-12T09:45:33;95859.97;;;23.89;38.64
78894;BME280;68282;42.698;23.350;2023-08-12T09:47:59;95854.00;;;23.82;38.55
78894;BME280;68282;42.698;23.350;2023-08-12T09:50:25;95865.72;;;23.93;39.36
78894;BME280;68282;42.698;23.350;2023-08-12T09:52:52;95866.34;;;24.04;38.83
78894;BME280;68282;42.698;23.350;2023-08-12T09:55:22;95849.75;;;24.13;38.18
78894;BME280;68282;42.698;23.350;2023-08-12T09:57:52;95853.75;;;24.20;38.96
78894;BME280;68282;42.698;23.350;2023-08-12T10:00:19;95847.81;;;23.99;38.51
78894;BME280;68282;42.698;23.350;2023-08-12T10:02:46;95854.31;;;24.08;38.25
78894;BME280;68282;42.698;23.350;2023-08-12T10:05:35;95843.50;;;24.07;39.70
78894;BME280;68282;42.698;23.350;2023-08-12T10:08:00;95833.28;;;24.16;39.27
78894;BME280;68282;42.698;23.350;2023-08-12T10:10:29;95837.34;;;24.33;39.17
78894;BME280;68282;42.698;23.350;2023-08-12T10:12:55;95834.75;;;24.36;38.16
78894;BME280;68282;42.698;23.350;2023-08-12T10:15:21;95834.38;;;24.52;38.44
78894;BME280;68282;42.698;23.350;2023-08-12T10:17:48;95834.59;;;24.64;37.49
78894;BME280;68282;42.698;23.350;2023-08-12T10:20:21;95826.06;;;24.75;37.71
78894;BME280;68282;42.698;23.350;2023-08-12T10:22:51;95832.34;;;24.89;38.40
78894;BME280;68282;42.698;23.350;2023-08-12T10:25:18;95818.31;;;24.94;38.07
78894;BME280;68282;42.698;23.350;2023-08-12T10:27:44;95828.84;;;25.06;35.65
78894;BME280;68282;42.698;23.350;2023-08-12T10:30:10;95825.75;;;25.08;35.48
78894;BME280;68282;42.698;23.350;2023-08-12T10:32:38;95813.84;;;25.16;36.55
78894;BME280;68282;42.698;23.350;2023-08-12T10:35:04;95816.66;;;25.34;36.40
78894;BME280;68282;42.698;23.350;2023-08-12T10:37:34;95808.72;;;25.50;35.61
78894;BME280;68282;42.698;23.350;2023-08-12T10:40:19;95807.78;;;25.63;34.04
78894;BME280;68282;42.698;23.350;2023-08-12T10:42:47;95805.84;;;25.72;34.29
78894;BME280;68282;42.698;23.350;2023-08-12T10:45:14;95797.84;;;25.80;34.55
78894;BME280;68282;42.698;23.350;2023-08-12T10:47:47;95787.97;;;25.91;32.73
78894;BME280;68282;42.698;23.350;2023-08-12T10:50:20;95799.31;;;25.95;32.63
78894;BME280;68282;42.698;23.350;2023-08-12T10:52:47;95799.78;;;25.97;33.69
78894;BME280;68282;42.698;23.350;2023-08-12T10:55:16;95788.81;;;26.09;33.96
78894;BME280;68282;42.698;23.350;2023-08-12T10:57:43;95785.25;;;26.17;32.24
78894;BME280;68282;42.698;23.350;2023-08-12T11:00:25;95786.22;;;26.30;33.21
78894;BME280;68282;42.698;23.350;2023-08-12T11:02:52;95781.16;;;26.32;30.99
78894;BME280;68282;42.698;23.350;2023-08-12T11:05:19;95782.28;;;26.22;30.05
78894;BME280;68282;42.698;23.350;2023-08-12T11:07:49;95787.22;;;26.34;31.45
78894;BME280;68282;42.698;23.350;2023-08-12T11:10:22;95766.38;;;26.32;32.51
78894;BME280;68282;42.698;23.350;2023-08-12T11:15:40;95782.63;;;26.21;31.86
78894;BME280;68282;42.698;23.350;2023-08-12T11:18:13;95778.66;;;25.96;31.43
78894;BME280;68282;42.698;23.350;2023-08-12T11:20:39;95765.03;;;25.76;32.45
78894;BME280;68282;42.698;23.350;2023-08-12T11:23:06;95768.31;;;25.78;32.60
78894;BME280;68282;42.698;23.350;2023-08-12T11:25:33;95770.78;;;25.98;31.72
78894;BME280;68282;42.698;23.350;2023-08-12T11:27:59;95770.00;;;26.15;31.67
78894;BME280;68282;42.698;23.350;2023-08-12T11:30:26;95768.34;;;26.31;31.93
78894;BME280;68282;42.698;23.350;2023-08-12T11:32:54;95755.72;;;26.34;32.38
78894;BME280;68282;42.698;23.350;2023-08-12T11:35:21;95755.06;;;26.46;33.25
78894;BME280;68282;42.698;23.350;2023-08-12T11:37:49;95760.72;;;26.76;29.74
78894;BME280;68282;42.698;23.350;2023-08-12T11:40:16;95759.53;;;26.94;28.84
78894;BME280;68282;42.698;23.350;2023-08-12T11:42:44;95750.50;;;26.97;29.43
78894;BME280;68282;42.698;23.350;2023-08-12T11:45:10;95752.16;;;26.98;29.26
78894;BME280;68282;42.698;23.350;2023-08-12T11:47:40;95744.53;;;27.08;29.78
78894;BME280;68282;42.698;23.350;2023-08-12T11:50:08;95740.84;;;27.25;28.38
78894;BME280;68282;42.698;23.350;2023-08-12T11:52:34;95744.38;;;27.43;29.37
78894;BME280;68282;42.698;23.350;2023-08-12T11:55:03;95739.72;;;27.56;29.53
78894;BME280;68282;42.698;23.350;2023-08-12T11:57:30;95748.53;;;27.67;29.42
78894;BME280;68282;42.698;23.350;2023-08-12T12:00:04;95741.53;;;27.82;29.34
78894;BME280;68282;42.698;23.350;2023-08-12T12:02:30;95744.03;;;27.96;28.40
78894;BME280;68282;42.698;23.350;2023-08-12T12:04:56;95743.78;;;27.88;29.15
78894;BME280;68282;42.698;23.350;2023-08-12T12:07:23;95735.94;;;27.52;29.64
78894;BME280;68282;42.698;23.350;2023-08-12T12:09:53;95742.91;;;27.37;30.36
78894;BME280;68282;42.698;23.350;2023-08-12T12:12:25;95741.97;;;27.33;30.64
78894;BME280;68282;42.698;23.350;2023-08-12T12:14:55;95729.75;;;27.07;30.05
78894;BME280;68282;42.698;23.350;2023-08-12T12:17:22;95727.50;;;27.00;30.82
78894;BME280;68282;42.698;23.350;2023-08-12T12:19:52;95734.00;;;27.13;30.29
78894;BME280;68282;42.698;23.350;2023-08-12T12:22:19;95716.34;;;27.00;30.24
78894;BME280;68282;42.698;23.350;2023-08-12T12:24:46;95733.53;;;27.11;29.75
78894;BME280;68282;42.698;23.350;2023-08-12T12:27:13;95725.25;;;27.24;29.67
78894;BME280;68282;42.698;23.350;2023-08-12T12:29:39;95727.66;;;27.34;29.73
78894;BME280;68282;42.698;23.350;2023-08-12T12:32:04;95711.31;;;27.15;29.27
78894;BME280;68282;42.698;23.350;2023-08-12T12:34:30;95725.66;;;27.05;29.67
78894;BME280;68282;42.698;23.350;2023-08-12T12:36:55;95729.19;;;26.84;30.21
78894;BME280;68282;42.698;23.350;2023-08-12T12:39:21;95717.25;;;26.66;31.31
78894;BME280;68282;42.698;23.350;2023-08-12T12:41:48;95715.97;;;26.54;31.89
78894;BME280;68282;42.698;23.350;2023-08-12T12:44:14;95713.38;;;26.41;31.29
78894;BME280;68282;42.698;23.350;2023-08-12T12:46:39;95724.53;;;26.32;32.40
78894;BME280;68282;42.698;23.350;2023-08-12T12:49:04;95717.03;;;26.23;31.95
78894;BME280;68282;42.698;23.350;2023-08-12T12:51:30;95721.44;;;26.24;31.59